sensor_id;sensor_type;location;lat;lon;timestamp;temperature;humidity
15717;DHT22;7960;50.908;4.204;2022-11-03T00:01:02;12.40;99.90
15717;DHT22;7960;50.908;4.204;2022-11-03T00:03:29;12.40;99.90
15717;DHT22;7960;50.908;4.204;2022-11-03T00:05:56;12.40;99.90
15717;DHT22;7960;50.908;4.204;2022-11-03T00:08:36;12.40;99.90
15717;DHT22;7960;50.908;4.204;2022-11-03T00:11:07;12.40;99.90
15717;DHT22;7960;50.908;4.204;2022-11-03T00:13:36;12.30;99.90
15717;DHT22;7960;50.908;4.204;2022-11-03T00:16:05;12.40;99.90
15717;DHT22;7960;50.908;4.204;2022-11-03T00:18:33;12.40;99.90
15717;DHT22;7960;50.908;4.204;2022-11-03T00:21:01;12.40;99.90
15717;DHT22;7960;50.908;4.204;2022-11-03T00:23:29;12.40;99.90
15717;DHT22;7960;50.908;4.204;2022-11-03T00:26:07;12.40;99.90
15717;DHT22;7960;50.908;4.204;2022-11-03T00:28:35;12.30;99.90
15717;DHT22;7960;50.908;4.204;2022-11-03T00:31:06;12.30;99.90
15717;DHT22;7960;50.908;4.204;2022-11-03T00:33:34;12.30;99.90
15717;DHT22;7960;50.908;4.204;2022-11-03T00:36:02;12.30;99.90
15717;DHT22;7960;50.908;4.204;2022-11-03T00:38:29;12.30;99.90
15717;DHT22;7960;50.908;4.204;2022-11-03T00:40:57;12.30;99.90
15717;DHT22;7960;50.908;4.204;2022-11-03T00:43:29;12.30;99.90
15717;DHT22;7960;50.908;4.204;2022-11-03T00:45:57;12.40;99.90
15717;DHT22;7960;50.908;4.204;2022-11-03T00:48:24;12.40;99.90
15717;DHT22;7960;50.908;4.204;2022-11-03T00:51:03;12.30;99.90
15717;DHT22;7960;50.908;4.204;2022-11-03T00:53:31;12.30;99.90
15717;DHT22;7960;50.908;4.204;2022-11-03T00:55:59;12.30;99.90
15717;DHT22;7960;50.908;4.204;2022-11-03T00:58:27;12.30;99.90
15717;DHT22;7960;50.908;4.204;2022-11-03T01:01:01;12.20;99.90
15717;DHT22;7960;50.908;4.204;2022-11-03T01:03:31;12.20;99.90
15717;DHT22;7960;50.908;4.204;2022-11-03T01:05:58;12.20;99.90
15717;DHT22;7960;50.908;4.204;2022-11-03T01:08:42;12.20;99.90
15717;DHT22;7960;50.908;4.204;2022-11-03T01:11:10;12.20;99.90
15717;DHT22;7960;50.908;4.204;2022-11-03T01:13:56;12.20;99.90
15717;DHT22;7960;50.908;4.204;2022-11-03T01:16:23;12.30;99.90
15717;DHT22;7960;50.908;4.204;2022-11-03T01:18:50;12.20;99.90
15717;DHT22;7960;50.908;4.204;2022-11-03T01:21:18;12.20;99.90
15717;DHT22;7960;50.908;4.204;2022-11-03T01:23:45;12.30;99.90
15717;DHT22;7960;50.908;4.204;2022-11-03T01:26:12;12.30;99.90
15717;DHT22;7960;50.908;4.204;2022-11-03T01:28:41;12.20;99.90
15717;DHT22;7960;50.908;4.204;2022-11-03T01:31:12;12.20;99.90
15717;DHT22;7960;50.908;4.204;2022-11-03T01:33:40;12.30;99.90
15717;DHT22;7960;50.908;4.204;2022-11-03T01:36:07;12.30;99.90
15717;DHT22;7960;50.908;4.204;2022-11-03T01:38:35;12.30;99.90
15717;DHT22;7960;50.908;4.204;2022-11-03T01:41:04;12.20;99.90
15717;DHT22;7960;50.908;4.204;2022-11-03T01:43:32;12.20;99.90
15717;DHT22;7960;50.908;4.204;2022-11-03T01:46:03;12.20;99.90
15717;DHT22;7960;50.908;4.204;2022-11-03T01:48:34;12.20;99.90
15717;DHT22;7960;50.908;4.204;2022-11-03T01:51:03;12.20;99.90
15717;DHT22;7960;50.908;4.204;2022-11-03T01:53:30;12.20;99.90
15717;DHT22;7960;50.908;4.204;2022-11-03T01:55:58;12.20;99.90
15717;DHT22;7960;50.908;4.204;2022-11-03T01:58:28;12.20;99.90
15717;DHT22;7960;50.908;4.204;2022-11-03T02:00:57;12.10;99.90
15717;DHT22;7960;50.908;4.204;2022-11-03T02:03:25;12.20;99.90
15717;DHT22;7960;50.908;4.204;2022-11-03T02:05:55;12.20;99.90
15717;DHT22;7960;50.908;4.204;2022-11-03T02:08:26;12.10;99.90
15717;DHT22;7960;50.908;4.204;2022-11-03T02:10:55;12.30;99.90
15717;DHT22;7960;50.908;4.204;2022-11-03T02:13:23;12.30;99.90
15717;DHT22;7960;50.908;4.204;2022-11-03T02:15:52;12.30;99.90
15717;DHT22;7960;50.908;4.204;2022-11-03T02:18:23;12.30;99.90
15717;DHT22;7960;50.908;4.204;2022-11-03T02:20:56;12.20;99.90
15717;DHT22;7960;50.908;4.204;2022-11-03T02:23:30;12.20;99.90
15717;DHT22;7960;50.908;4.204;2022-11-03T02:26:00;12.20;99.90
15717;DHT22;7960;50.908;4.204;2022-11-03T02:28:28;12.30;99.90
15717;DHT22;7960;50.908;4.204;2022-11-03T02:31:02;12.20;99.90
15717;DHT22;7960;50.908;4.204;2022-11-03T02:33:43;12.20;99.90
15717;DHT22;7960;50.908;4.204;2022-11-03T02:36:17;12.20;99.90
15717;DHT22;7960;50.908;4.204;2022-11-03T02:38:48;12.20;99.90
15717;DHT22;7960;50.908;4.204;2022-11-03T02:41:17;12.20;99.90
15717;DHT22;7960;50.908;4.204;2022-11-03T02:43:46;12.20;99.90
15717;DHT22;7960;50.908;4.204;2022-11-03T02:46:13;12.20;99.90
15717;DHT22;7960;50.908;4.204;2022-11-03T02:48:41;12.30;99.90
15717;DHT22;7960;50.908;4.204;2022-11-03T02:51:08;12.20;99.90
15717;DHT22;7960;50.908;4.204;2022-11-03T02:53:39;12.20;99.90
15717;DHT22;7960;50.908;4.204;2022-11-03T02:56:12;12.30;99.90
15717;DHT22;7960;50.908;4.204;2022-11-03T02:58:48;12.30;99.90
15717;DHT22;7960;50.908;4.204;2022-11-03T03:01:21;12.20;99.90
15717;DHT22;7960;50.908;4.204;2022-11-03T03:03:52;12.30;99.90
15717;DHT22;7960;50.908;4.204;2022-11-03T03:06:22;12.30;99.90
15717;DHT22;7960;50.908;4.204;2022-11-03T03:08:53;12.30;99.90
15717;DHT22;7960;50.908;4.204;2022-11-03T03:11:21;12.30;99.90
15717;DHT22;7960;50.908;4.204;2022-11-03T03:14:08;12.30;99.90
15717;DHT22;7960;50.908;4.204;2022-11-03T03:16:47;12.30;99.90
15717;DHT22;7960;50.908;4.204;2022-11-03T03:19:21;12.40;99.90
15717;DHT22;7960;50.908;4.204;2022-11-03T03:21:52;12.40;99.90
15717;DHT22;7960;50.908;4.204;2022-11-03T03:24:26;12.40;99.90
15717;DHT22;7960;50.908;4.204;2022-11-03T03:26:59;12.40;99.90
15717;DHT22;7960;50.908;4.204;2022-11-03T03:29:33;12.40;99.90
15717;DHT22;7960;50.908;4.204;2022-11-03T03:32:06;12.40;99.90
15717;DHT22;7960;50.908;4.204;2022-11-03T03:34:34;12.30;99.90
15717;DHT22;7960;50.908;4.204;2022-11-03T03:37:03;12.30;99.90
15717;DHT22;7960;50.908;4.204;2022-11-03T03:39:34;12.40;99.90
15717;DHT22;7960;50.908;4.204;2022-11-03T03:42:02;12.40;99.90
15717;DHT22;7960;50.908;4.204;2022-11-03T03:44:32;12.40;99.90
15717;DHT22;7960;50.908;4.204;2022-11-03T03:47:03;12.30;99.90
15717;DHT22;7960;50.908;4.204;2022-11-03T03:49:31;12.40;99.90
15717;DHT22;7960;50.908;4.204;2022-11-03T03:51:58;12.40;99.90
15717;DHT22;7960;50.908;4.204;2022-11-03T03:54:25;12.40;99.90
15717;DHT22;7960;50.908;4.204;2022-11-03T03:56:55;12.40;99.90
15717;DHT22;7960;50.908;4.204;2022-11-03T03:59:24;12.40;99.90
15717;DHT22;7960;50.908;4.204;2022-11-03T04:01:52;12.40;99.90
15717;DHT22;7960;50.908;4.204;2022-11-03T04:04:19;12.40;99.90
15717;DHT22;7960;50.908;4.204;2022-11-03T04:06:47;12.40;99.90
15717;DHT22;7960;50.908;4.204;2022-11-03T04:09:13;12.40;99.90
15717;DHT22;7960;50.908;4.204;2022-11-03T04:11:40;12.30;99.90
15717;DHT22;7960;50.908;4.204;2022-11-03T04:14:27;12.40;99.90
15717;DHT22;7960;50.908;4.204;2022-11-03T04:17:18;12.40;99.90
15717;DHT22;7960;50.908;4.204;2022-11-03T04:20:03;12.40;99.90
15717;DHT22;7960;50.908;4.204;2022-11-03T04:22:46;12.40;99.90
15717;DHT22;7960;50.908;4.204;2022-11-03T04:25:14;12.40;99.90
15717;DHT22;7960;50.908;4.204;2022-11-03T04:27:41;12.40;99.90
15717;DHT22;7960;50.908;4.204;2022-11-03T04:30:14;12.40;99.90
15717;DHT22;7960;50.908;4.204;2022-11-03T04:32:44;12.40;99.90
15717;DHT22;7960;50.908;4.204;2022-11-03T04:35:16;12.50;99.90
15717;DHT22;7960;50.908;4.204;2022-11-03T04:37:43;12.40;99.90
15717;DHT22;7960;50.908;4.204;2022-11-03T04:40:14;12.50;99.90
15717;DHT22;7960;50.908;4.204;2022-11-03T04:42:42;12.50;99.90
15717;DHT22;7960;50.908;4.204;2022-11-03T04:45:21;12.40;99.90
15717;DHT22;7960;50.908;4.204;2022-11-03T04:47:51;12.50;99.90
15717;DHT22;7960;50.908;4.204;2022-11-03T04:50:20;12.50;99.90
15717;DHT22;7960;50.908;4.204;2022-11-03T04:52:48;12.50;99.90
15717;DHT22;7960;50.908;4.204;2022-11-03T04:55:17;12.50;99.90
15717;DHT22;7960;50.908;4.204;2022-11-03T04:57:47;12.50;99.90
15717;DHT22;7960;50.908;4.204;2022-11-03T05:00:16;12.60;99.90
15717;DHT22;7960;50.908;4.204;2022-11-03T05:02:44;12.60;99.90
15717;DHT22;7960;50.908;4.204;2022-11-03T05:05:17;12.60;99.90
15717;DHT22;7960;50.908;4.204;2022-11-03T05:07:46;12.60;99.90
15717;DHT22;7960;50.908;4.204;2022-11-03T05:10:16;12.60;99.90
15717;DHT22;7960;50.908;4.204;2022-11-03T05:12:44;12.70;99.90
15717;DHT22;7960;50.908;4.204;2022-11-03T05:15:31;12.70;99.90
15717;DHT22;7960;50.908;4.204;2022-11-03T05:18:03;12.70;99.90
15717;DHT22;7960;50.908;4.204;2022-11-03T05:20:50;12.70;99.90
15717;DHT22;7960;50.908;4.204;2022-11-03T05:23:20;12.70;99.90
15717;DHT22;7960;50.908;4.204;2022-11-03T05:25:50;12.70;99.90
15717;DHT22;7960;50.908;4.204;2022-11-03T05:28:23;12.70;99.90
15717;DHT22;7960;50.908;4.204;2022-11-03T05:30:52;12.70;99.90
15717;DHT22;7960;50.908;4.204;2022-11-03T05:33:21;12.70;99.90
15717;DHT22;7960;50.908;4.204;2022-11-03T05:35:53;12.70;99.90
15717;DHT22;7960;50.908;4.204;2022-11-03T05:38:21;12.70;99.90
15717;DHT22;7960;50.908;4.204;2022-11-03T05:40:51;12.80;99.90
15717;DHT22;7960;50.908;4.204;2022-11-03T05:43:22;12.80;99.90
15717;DHT22;7960;50.908;4.204;2022-11-03T05:45:51;12.80;99.90
15717;DHT22;7960;50.908;4.204;2022-11-03T05:48:28;12.80;99.90
15717;DHT22;7960;50.908;4.204;2022-11-03T05:50:58;12.80;99.90
15717;DHT22;7960;50.908;4.204;2022-11-03T05:53:28;12.80;99.90
15717;DHT22;7960;50.908;4.204;2022-11-03T05:55:58;12.80;99.90
15717;DHT22;7960;50.908;4.204;2022-11-03T05:58:28;12.80;99.90
15717;DHT22;7960;50.908;4.204;2022-11-03T06:00:56;12.80;99.90
15717;DHT22;7960;50.908;4.204;2022-11-03T06:03:26;12.80;99.90
15717;DHT22;7960;50.908;4.204;2022-11-03T06:05:54;12.80;99.90
15717;DHT22;7960;50.908;4.204;2022-11-03T06:08:24;12.70;99.90
15717;DHT22;7960;50.908;4.204;2022-11-03T06:10:53;12.70;99.90
15717;DHT22;7960;50.908;4.204;2022-11-03T06:13:25;12.70;99.90
15717;DHT22;7960;50.908;4.204;2022-11-03T06:15:56;12.70;99.90
15717;DHT22;7960;50.908;4.204;2022-11-03T06:18:27;12.80;99.90
15717;DHT22;7960;50.908;4.204;2022-11-03T06:20:57;12.70;99.90
15717;DHT22;7960;50.908;4.204;2022-11-03T06:23:26;12.70;99.90
15717;DHT22;7960;50.908;4.204;2022-11-03T06:25:55;12.70;99.90
15717;DHT22;7960;50.908;4.204;2022-11-03T06:28:24;12.70;99.90
15717;DHT22;7960;50.908;4.204;2022-11-03T06:30:52;12.70;99.90
15717;DHT22;7960;50.908;4.204;2022-11-03T06:33:23;12.60;99.90
15717;DHT22;7960;50.908;4.204;2022-11-03T06:35:53;12.60;99.90
15717;DHT22;7960;50.908;4.204;2022-11-03T06:38:23;12.60;99.90
15717;DHT22;7960;50.908;4.204;2022-11-03T06:40:52;12.60;99.90
15717;DHT22;7960;50.908;4.204;2022-11-03T06:43:21;12.60;99.90
15717;DHT22;7960;50.908;4.204;2022-11-03T06:45:51;12.60;99.90
15717;DHT22;7960;50.908;4.204;2022-11-03T06:48:28;12.60;99.90
15717;DHT22;7960;50.908;4.204;2022-11-03T06:50:57;12.50;99.90
15717;DHT22;7960;50.908;4.204;2022-11-03T06:53:28;12.50;99.90
15717;DHT22;7960;50.908;4.204;2022-11-03T06:55:57;12.60;99.90
15717;DHT22;7960;50.908;4.204;2022-11-03T06:58:27;12.60;99.90
15717;DHT22;7960;50.908;4.204;2022-11-03T07:00:57;12.60;99.90
15717;DHT22;7960;50.908;4.204;2022-11-03T07:03:25;12.60;99.90
15717;DHT22;7960;50.908;4.204;2022-11-03T07:05:56;12.60;99.90
15717;DHT22;7960;50.908;4.204;2022-11-03T07:08:27;12.60;99.90
15717;DHT22;7960;50.908;4.204;2022-11-03T07:11:06;12.60;99.90
15717;DHT22;7960;50.908;4.204;2022-11-03T07:13:36;12.60;99.90
15717;DHT22;7960;50.908;4.204;2022-11-03T07:16:03;12.60;99.90
15717;DHT22;7960;50.908;4.204;2022-11-03T07:18:33;12.60;99.90
15717;DHT22;7960;50.908;4.204;2022-11-03T07:21:05;12.60;99.90
15717;DHT22;7960;50.908;4.204;2022-11-03T07:23:32;12.70;99.90
15717;DHT22;7960;50.908;4.204;2022-11-03T07:26:01;12.60;99.90
15717;DHT22;7960;50.908;4.204;2022-11-03T07:28:32;12.60;99.90
15717;DHT22;7960;50.908;4.204;2022-11-03T07:31:01;12.60;99.90
15717;DHT22;7960;50.908;4.204;2022-11-03T07:33:35;12.60;99.90
15717;DHT22;7960;50.908;4.204;2022-11-03T07:36:02;12.60;99.90
15717;DHT22;7960;50.908;4.204;2022-11-03T07:38:32;12.60;99.90
15717;DHT22;7960;50.908;4.204;2022-11-03T07:40:59;12.60;99.90
15717;DHT22;7960;50.908;4.204;2022-11-03T07:43:31;12.70;99.90
15717;DHT22;7960;50.908;4.204;2022-11-03T07:46:00;12.70;99.90
15717;DHT22;7960;50.908;4.204;2022-11-03T07:48:31;12.70;99.90
15717;DHT22;7960;50.908;4.204;2022-11-03T07:51:00;12.70;99.90
15717;DHT22;7960;50.908;4.204;2022-11-03T07:53:35;12.60;99.90
15717;DHT22;7960;50.908;4.204;2022-11-03T07:56:12;12.70;99.90
15717;DHT22;7960;50.908;4.204;2022-11-03T07:58:41;12.70;99.90
15717;DHT22;7960;50.908;4.204;2022-11-03T08:01:26;12.70;99.90
15717;DHT22;7960;50.908;4.204;2022-11-03T08:03:57;12.80;99.90
15717;DHT22;7960;50.908;4.204;2022-11-03T08:06:26;12.70;99.90
15717;DHT22;7960;50.908;4.204;2022-11-03T08:08:53;12.80;99.90
15717;DHT22;7960;50.908;4.204;2022-11-03T08:11:20;12.80;99.90
15717;DHT22;7960;50.908;4.204;2022-11-03T08:13:50;12.80;99.90
15717;DHT22;7960;50.908;4.204;2022-11-03T08:16:17;12.80;99.90
15717;DHT22;7960;50.908;4.204;2022-11-03T08:18:44;12.80;99.90
15717;DHT22;7960;50.908;4.204;2022-11-03T08:21:11;12.70;99.90
15717;DHT22;7960;50.908;4.204;2022-11-03T08:23:39;12.70;99.90
15717;DHT22;7960;50.908;4.204;2022-11-03T08:26:05;12.70;99.90
15717;DHT22;7960;50.908;4.204;2022-11-03T08:28:33;12.70;99.90
15717;DHT22;7960;50.908;4.204;2022-11-03T08:31:01;12.70;99.90
15717;DHT22;7960;50.908;4.204;2022-11-03T08:33:30;12.80;99.90
15717;DHT22;7960;50.908;4.204;2022-11-03T08:35:58;12.70;99.90
15717;DHT22;7960;50.908;4.204;2022-11-03T08:38:25;12.70;99.90
15717;DHT22;7960;50.908;4.204;2022-11-03T08:40:52;12.70;99.90
15717;DHT22;7960;50.908;4.204;2022-11-03T08:43:19;12.60;99.90
15717;DHT22;7960;50.908;4.204;2022-11-03T08:45:45;12.70;99.90
15717;DHT22;7960;50.908;4.204;2022-11-03T08:48:19;12.60;99.90
15717;DHT22;7960;50.908;4.204;2022-11-03T08:50:46;12.60;99.90
15717;DHT22;7960;50.908;4.204;2022-11-03T08:53:14;12.60;99.90
15717;DHT22;7960;50.908;4.204;2022-11-03T08:55:41;12.50;99.90
15717;DHT22;7960;50.908;4.204;2022-11-03T08:58:08;12.60;99.90
15717;DHT22;7960;50.908;4.204;2022-11-03T09:00:35;12.60;99.90
15717;DHT22;7960;50.908;4.204;2022-11-03T09:03:02;12.60;99.90
15717;DHT22;7960;50.908;4.204;2022-11-03T09:05:30;12.60;99.90
15717;DHT22;7960;50.908;4.204;2022-11-03T09:07:57;12.60;99.90
15717;DHT22;7960;50.908;4.204;2022-11-03T09:10:24;12.60;99.90
15717;DHT22;7960;50.908;4.204;2022-11-03T09:12:51;12.60;99.90
15717;DHT22;7960;50.908;4.204;2022-11-03T09:15:18;12.70;99.90
15717;DHT22;7960;50.908;4.204;2022-11-03T09:17:45;12.70;99.90
15717;DHT22;7960;50.908;4.204;2022-11-03T09:20:12;12.80;99.90
15717;DHT22;7960;50.908;4.204;2022-11-03T09:22:40;12.80;99.90
15717;DHT22;7960;50.908;4.204;2022-11-03T09:25:08;12.80;99.90
15717;DHT22;7960;50.908;4.204;2022-11-03T09:27:34;12.90;99.90
15717;DHT22;7960;50.908;4.204;2022-11-03T09:30:02;13.10;99.90
15717;DHT22;7960;50.908;4.204;2022-11-03T09:32:29;13.20;99.90
15717;DHT22;7960;50.908;4.204;2022-11-03T09:34:56;13.20;99.90
15717;DHT22;7960;50.908;4.204;2022-11-03T09:37:23;13.30;99.90
15717;DHT22;7960;50.908;4.204;2022-11-03T09:39:51;13.50;99.90
15717;DHT22;7960;50.908;4.204;2022-11-03T09:42:18;13.60;99.90
15717;DHT22;7960;50.908;4.204;2022-11-03T09:44:45;13.70;99.90
15717;DHT22;7960;50.908;4.204;2022-11-03T09:47:20;13.60;99.90
15717;DHT22;7960;50.908;4.204;2022-11-03T09:49:48;13.70;99.90
15717;DHT22;7960;50.908;4.204;2022-11-03T09:52:20;13.70;99.90
15717;DHT22;7960;50.908;4.204;2022-11-03T09:54:48;13.70;99.90
15717;DHT22;7960;50.908;4.204;2022-11-03T09:57:18;13.80;99.90
15717;DHT22;7960;50.908;4.204;2022-11-03T09:59:47;13.90;99.90
15717;DHT22;7960;50.908;4.204;2022-11-03T10:02:20;13.90;99.90
15717;DHT22;7960;50.908;4.204;2022-11-03T10:04:47;13.90;99.90
15717;DHT22;7960;50.908;4.204;2022-11-03T10:07:14;14.00;99.90
15717;DHT22;7960;50.908;4.204;2022-11-03T10:09:44;14.00;99.90
15717;DHT22;7960;50.908;4.204;2022-11-03T10:12:12;14.00;99.90
15717;DHT22;7960;50.908;4.204;2022-11-03T10:14:40;14.00;99.90
15717;DHT22;7960;50.908;4.204;2022-11-03T10:17:14;14.00;99.90
15717;DHT22;7960;50.908;4.204;2022-11-03T10:19:41;14.00;99.90
15717;DHT22;7960;50.908;4.204;2022-11-03T10:22:08;14.20;99.90
15717;DHT22;7960;50.908;4.204;2022-11-03T10:24:35;14.20;99.90
15717;DHT22;7960;50.908;4.204;2022-11-03T10:27:02;14.20;99.90
15717;DHT22;7960;50.908;4.204;2022-11-03T10:29:29;14.20;99.90
15717;DHT22;7960;50.908;4.204;2022-11-03T10:31:59;14.20;99.90
15717;DHT22;7960;50.908;4.204;2022-11-03T10:34:31;14.20;99.90
15717;DHT22;7960;50.908;4.204;2022-11-03T10:37:16;14.20;99.90
15717;DHT22;7960;50.908;4.204;2022-11-03T10:39:45;14.20;99.90
15717;DHT22;7960;50.908;4.204;2022-11-03T10:42:18;14.20;99.90
15717;DHT22;7960;50.908;4.204;2022-11-03T10:44:46;14.30;99.90
15717;DHT22;7960;50.908;4.204;2022-11-03T10:47:31;14.40;99.90
15717;DHT22;7960;50.908;4.204;2022-11-03T10:49:59;14.60;99.90
15717;DHT22;7960;50.908;4.204;2022-11-03T10:54:58;15.10;99.90
15717;DHT22;7960;50.908;4.204;2022-11-03T10:57:26;15.10;99.90
15717;DHT22;7960;50.908;4.204;2022-11-03T10:59:54;15.00;99.90
15717;DHT22;7960;50.908;4.204;2022-11-03T11:02:25;14.90;99.90
15717;DHT22;7960;50.908;4.204;2022-11-03T11:04:56;14.90;99.90
15717;DHT22;7960;50.908;4.204;2022-11-03T11:07:30;14.80;99.90
15717;DHT22;7960;50.908;4.204;2022-11-03T11:10:05;14.80;99.90
15717;DHT22;7960;50.908;4.204;2022-11-03T11:12:32;14.80;99.90
15717;DHT22;7960;50.908;4.204;2022-11-03T11:14:59;14.80;99.90
15717;DHT22;7960;50.908;4.204;2022-11-03T11:17:41;14.90;99.90
15717;DHT22;7960;50.908;4.204;2022-11-03T11:20:37;14.90;99.90
15717;DHT22;7960;50.908;4.204;2022-11-03T11:26:28;14.90;99.90
15717;DHT22;7960;50.908;4.204;2022-11-03T11:35:07;15.20;99.90
15717;DHT22;7960;50.908;4.204;2022-11-03T11:37:36;15.20;99.90
15717;DHT22;7960;50.908;4.204;2022-11-03T11:40:11;15.20;99.90
15717;DHT22;7960;50.908;4.204;2022-11-03T11:48:49;15.80;99.90
15717;DHT22;7960;50.908;4.204;2022-11-03T11:51:16;16.10;99.90
15717;DHT22;7960;50.908;4.204;2022-11-03T11:53:44;16.20;99.90
15717;DHT22;7960;50.908;4.204;2022-11-03T11:56:14;16.10;99.90
15717;DHT22;7960;50.908;4.204;2022-11-03T11:58:43;16.00;99.90
15717;DHT22;7960;50.908;4.204;2022-11-03T12:01:21;15.90;99.90
15717;DHT22;7960;50.908;4.204;2022-11-03T12:03:54;16.00;99.90
15717;DHT22;7960;50.908;4.204;2022-11-03T12:06:31;15.90;99.90
15717;DHT22;7960;50.908;4.204;2022-11-03T12:09:15;16.00;99.90
15717;DHT22;7960;50.908;4.204;2022-11-03T12:11:44;15.90;99.90
15717;DHT22;7960;50.908;4.204;2022-11-03T12:14:22;15.90;99.90
15717;DHT22;7960;50.908;4.204;2022-11-03T12:16:49;15.90;99.90
15717;DHT22;7960;50.908;4.204;2022-11-03T12:19:36;15.90;99.90
15717;DHT22;7960;50.908;4.204;2022-11-03T12:22:05;15.80;99.90
15717;DHT22;7960;50.908;4.204;2022-11-03T12:24:45;15.70;99.90
15717;DHT22;7960;50.908;4.204;2022-11-03T12:30:01;15.70;99.90
15717;DHT22;7960;50.908;4.204;2022-11-03T12:32:30;15.70;99.90
15717;DHT22;7960;50.908;4.204;2022-11-03T12:34:57;15.60;99.90
15717;DHT22;7960;50.908;4.204;2022-11-03T12:37:24;15.60;99.90
15717;DHT22;7960;50.908;4.204;2022-11-03T12:39:52;15.50;99.90
15717;DHT22;7960;50.908;4.204;2022-11-03T12:42:19;15.40;99.90
15717;DHT22;7960;50.908;4.204;2022-11-03T12:44:47;15.40;99.90
15717;DHT22;7960;50.908;4.204;2022-11-03T12:47:13;15.50;99.90
15717;DHT22;7960;50.908;4.204;2022-11-03T12:49:40;15.40;99.90
15717;DHT22;7960;50.908;4.204;2022-11-03T12:52:07;15.30;99.90
15717;DHT22;7960;50.908;4.204;2022-11-03T12:54:35;15.20;99.90
15717;DHT22;7960;50.908;4.204;2022-11-03T12:57:03;15.00;99.90
15717;DHT22;7960;50.908;4.204;2022-11-03T12:59:30;14.90;99.90
15717;DHT22;7960;50.908;4.204;2022-11-03T13:01:57;14.80;99.90
15717;DHT22;7960;50.908;4.204;2022-11-03T13:04:24;14.80;99.90
15717;DHT22;7960;50.908;4.204;2022-11-03T13:06:51;14.80;99.90
15717;DHT22;7960;50.908;4.204;2022-11-03T13:09:18;14.70;99.90
15717;DHT22;7960;50.908;4.204;2022-11-03T13:11:46;14.60;99.90
15717;DHT22;7960;50.908;4.204;2022-11-03T13:14:32;14.50;99.90
15717;DHT22;7960;50.908;4.204;2022-11-03T13:16:59;14.50;99.90
15717;DHT22;7960;50.908;4.204;2022-11-03T13:19:28;14.40;99.90
15717;DHT22;7960;50.908;4.204;2022-11-03T13:21:55;14.30;99.90
15717;DHT22;7960;50.908;4.204;2022-11-03T13:24:21;14.40;99.90
15717;DHT22;7960;50.908;4.204;2022-11-03T13:26:48;14.30;99.90
15717;DHT22;7960;50.908;4.204;2022-11-03T13:29:15;14.30;99.90
15717;DHT22;7960;50.908;4.204;2022-11-03T13:31:43;14.40;99.90
15717;DHT22;7960;50.908;4.204;2022-11-03T13:34:10;14.30;99.90
15717;DHT22;7960;50.908;4.204;2022-11-03T13:36:37;14.30;99.90
15717;DHT22;7960;50.908;4.204;2022-11-03T13:39:04;14.30;99.90
15717;DHT22;7960;50.908;4.204;2022-11-03T13:41:31;14.30;99.90
15717;DHT22;7960;50.908;4.204;2022-11-03T13:43:58;14.40;99.90
15717;DHT22;7960;50.908;4.204;2022-11-03T13:46:25;14.40;99.90
15717;DHT22;7960;50.908;4.204;2022-11-03T13:48:53;14.30;99.90
15717;DHT22;7960;50.908;4.204;2022-11-03T13:51:20;14.20;99.90
15717;DHT22;7960;50.908;4.204;2022-11-03T13:53:46;14.20;99.90
15717;DHT22;7960;50.908;4.204;2022-11-03T13:56:15;14.10;99.90
15717;DHT22;7960;50.908;4.204;2022-11-03T13:58:42;14.10;99.90
15717;DHT22;7960;50.908;4.204;2022-11-03T14:01:11;14.10;99.90
15717;DHT22;7960;50.908;4.204;2022-11-03T14:03:37;14.10;99.90
15717;DHT22;7960;50.908;4.204;2022-11-03T14:06:08;14.10;99.90
15717;DHT22;7960;50.908;4.204;2022-11-03T14:08:36;14.00;99.90
15717;DHT22;7960;50.908;4.204;2022-11-03T14:11:05;13.90;99.90
15717;DHT22;7960;50.908;4.204;2022-11-03T14:13:47;13.90;99.90
15717;DHT22;7960;50.908;4.204;2022-11-03T14:16:14;13.90;99.90
15717;DHT22;7960;50.908;4.204;2022-11-03T14:18:45;13.90;99.90
15717;DHT22;7960;50.908;4.204;2022-11-03T14:21:19;13.90;99.90
15717;DHT22;7960;50.908;4.204;2022-11-03T14:23:50;13.90;99.90
15717;DHT22;7960;50.908;4.204;2022-11-03T14:26:18;13.90;99.90
15717;DHT22;7960;50.908;4.204;2022-11-03T14:29:02;13.90;99.90
15717;DHT22;7960;50.908;4.204;2022-11-03T14:31:30;13.90;99.90
15717;DHT22;7960;50.908;4.204;2022-11-03T14:33:58;13.80;99.90
15717;DHT22;7960;50.908;4.204;2022-11-03T14:36:27;13.80;99.90
15717;DHT22;7960;50.908;4.204;2022-11-03T14:38:56;13.80;99.90
15717;DHT22;7960;50.908;4.204;2022-11-03T14:41:25;13.70;99.90
15717;DHT22;7960;50.908;4.204;2022-11-03T14:44:10;13.70;99.90
15717;DHT22;7960;50.908;4.204;2022-11-03T14:46:39;13.70;99.90
15717;DHT22;7960;50.908;4.204;2022-11-03T14:49:06;13.60;99.90
15717;DHT22;7960;50.908;4.204;2022-11-03T14:51:37;13.60;99.90
15717;DHT22;7960;50.908;4.204;2022-11-03T14:54:04;13.60;99.90
15717;DHT22;7960;50.908;4.204;2022-11-03T14:56:35;13.60;99.90
15717;DHT22;7960;50.908;4.204;2022-11-03T14:59:02;13.60;99.90
15717;DHT22;7960;50.908;4.204;2022-11-03T15:01:30;13.70;99.90
15717;DHT22;7960;50.908;4.204;2022-11-03T15:03:58;13.70;99.90
15717;DHT22;7960;50.908;4.204;2022-11-03T15:06:25;13.60;99.90
15717;DHT22;7960;50.908;4.204;2022-11-03T15:08:53;13.50;99.90
15717;DHT22;7960;50.908;4.204;2022-11-03T15:11:20;13.50;99.90
15717;DHT22;7960;50.908;4.204;2022-11-03T15:13:47;13.50;99.90
15717;DHT22;7960;50.908;4.204;2022-11-03T15:16:14;13.50;99.90
15717;DHT22;7960;50.908;4.204;2022-11-03T15:18:41;13.40;99.90
15717;DHT22;7960;50.908;4.204;2022-11-03T15:21:09;13.30;99.90
15717;DHT22;7960;50.908;4.204;2022-11-03T15:23:36;13.30;99.90
15717;DHT22;7960;50.908;4.204;2022-11-03T15:26:04;13.20;99.90
15717;DHT22;7960;50.908;4.204;2022-11-03T15:28:31;13.00;99.90
15717;DHT22;7960;50.908;4.204;2022-11-03T15:30:58;13.00;99.90
15717;DHT22;7960;50.908;4.204;2022-11-03T15:33:25;12.90;99.90
15717;DHT22;7960;50.908;4.204;2022-11-03T15:35:52;12.80;99.90
15717;DHT22;7960;50.908;4.204;2022-11-03T15:38:19;12.70;99.90
15717;DHT22;7960;50.908;4.204;2022-11-03T15:40:46;12.80;99.90
15717;DHT22;7960;50.908;4.204;2022-11-03T15:43:14;12.70;99.90
15717;DHT22;7960;50.908;4.204;2022-11-03T15:45:41;12.80;99.90
15717;DHT22;7960;50.908;4.204;2022-11-03T15:48:07;12.70;99.90
15717;DHT22;7960;50.908;4.204;2022-11-03T15:50:36;12.60;99.90
15717;DHT22;7960;50.908;4.204;2022-11-03T15:53:02;12.50;99.90
15717;DHT22;7960;50.908;4.204;2022-11-03T15:55:30;12.50;99.90
15717;DHT22;7960;50.908;4.204;2022-11-03T15:57:57;12.50;99.90
15717;DHT22;7960;50.908;4.204;2022-11-03T16:00:25;12.40;99.90
15717;DHT22;7960;50.908;4.204;2022-11-03T16:02:52;12.40;99.90
15717;DHT22;7960;50.908;4.204;2022-11-03T16:05:18;12.40;99.90
15717;DHT22;7960;50.908;4.204;2022-11-03T16:07:45;12.40;99.90
15717;DHT22;7960;50.908;4.204;2022-11-03T16:10:12;12.30;99.90
15717;DHT22;7960;50.908;4.204;2022-11-03T16:12:40;12.30;99.90
15717;DHT22;7960;50.908;4.204;2022-11-03T16:15:10;12.30;99.90
15717;DHT22;7960;50.908;4.204;2022-11-03T16:17:38;12.30;99.90
15717;DHT22;7960;50.908;4.204;2022-11-03T16:20:06;12.20;99.90
15717;DHT22;7960;50.908;4.204;2022-11-03T16:22:34;12.30;99.90